Time;durP1;ratioP1;P1;durP2;ratioP2;P2;SDS_P1;SDS_P2;PMS_P1;PMS_P2;Temp;Humidity;BMP_temperature;BMP_pressure;BME280_temperature;BME280_humidity;BME280_pressure;Samples;Min_cycle;Max_cycle;Signal;HPM_P1;HPM_P2
2023/09/24 00:01:42;;;;;;;1.87;0.70;;;;;;;;;;5012822;28;20513;-55
2023/09/24 00:04:10;;;;;;;1.87;0.97;;;;;;;;;;5012656;28;20633;-55
2023/09/24 00:06:37;;;;;;;1.70;0.80;;;;;;;;;;5012603;28;20934;-55
2023/09/24 00:09:04;;;;;;;1.93;1.03;;;;;;;;;;5012351;28;20953;-55
2023/09/24 00:11:32;;;;;;;1.93;1.00;;;;;;;;;;5012597;28;20501;-55
2023/09/24 00:13:59;;;;;;;1.60;0.80;;;;;;;;;;5012246;28;20446;-55
2023/09/24 00:16:26;;;;;;;1.80;1.00;;;;;;;;;;5012266;28;20467;-55
2023/09/24 00:18:55;;;;;;;2.77;1.20;;;;;;;;;;5012367;28;20505;-55
2023/09/24 00:21:22;;;;;;;1.80;0.93;;;;;;;;;;5011976;28;20959;-55
2023/09/24 00:23:49;;;;;;;3.60;1.07;;;;;;;;;;5012445;28;21019;-56
2023/09/24 00:26:18;;;;;;;3.20;1.20;;;;;;;;;;5011939;28;20454;-55
2023/09/24 00:28:46;;;;;;;1.83;1.10;;;;;;;;;;5012191;28;20477;-54
2023/09/24 00:31:13;;;;;;;2.00;1.10;;;;;;;;;;5011914;28;20505;-55
2023/09/24 00:33:40;;;;;;;1.83;1.03;;;;;;;;;;5011768;28;20458;-54
2023/09/24 00:36:09;;;;;;;2.00;1.20;;;;;;;;;;5012125;28;20525;-55
2023/09/24 00:38:39;;;;;;;1.97;1.00;;;;;;;;;;5012047;28;20439;-55
2023/09/24 00:41:06;;;;;;;2.23;1.20;;;;;;;;;;5011342;28;20947;-55
2023/09/24 00:43:34;;;;;;;3.80;1.00;;;;;;;;;;5011602;28;20990;-55
2023/09/24 00:46:03;;;;;;;2.40;1.20;;;;;;;;;;5011563;28;20475;-55
2023/09/24 00:48:31;;;;;;;2.80;1.13;;;;;;;;;;5012298;28;20443;-55
2023/09/24 00:50:59;;;;;;;2.17;1.00;;;;;;;;;;5011568;28;20447;-55
2023/09/24 00:53:28;;;;;;;1.47;0.90;;;;;;;;;;5011542;28;20476;-55
2023/09/24 00:55:55;;;;;;;2.43;1.30;;;;;;;;;;5012113;28;20929;-55
2023/09/24 00:58:25;;;;;;;2.37;1.00;;;;;;;;;;5004586;28;20919;-55
2023/09/24 01:00:53;;;;;;;3.00;1.10;;;;;;;;;;5011024;28;20449;-55
2023/09/24 01:03:22;;;;;;;2.63;1.00;;;;;;;;;;5011610;28;20569;-55
2023/09/24 01:05:50;;;;;;;2.60;1.23;;;;;;;;;;5011191;28;20471;-55
2023/09/24 01:08:18;;;;;;;1.90;0.97;;;;;;;;;;5011782;28;20443;-55
2023/09/24 01:10:47;;;;;;;4.63;1.30;;;;;;;;;;5011440;28;20447;-55
2023/09/24 01:13:20;;;;;;;4.43;1.13;;;;;;;;;;5010697;28;20444;-55
2023/09/24 01:15:48;;;;;;;2.97;0.90;;;;;;;;;;5010868;28;20505;-55
2023/09/24 01:18:15;;;;;;;2.10;1.10;;;;;;;;;;5011455;28;20470;-55
2023/09/24 01:20:43;;;;;;;2.53;1.03;;;;;;;;;;5011102;28;20442;-54
2023/09/24 01:23:14;;;;;;;2.10;0.90;;;;;;;;;;5010806;28;20887;-56
2023/09/24 01:25:43;;;;;;;2.80;0.90;;;;;;;;;;5011122;28;20494;-55
2023/09/24 01:28:11;;;;;;;2.33;1.10;;;;;;;;;;5010951;28;20454;-55
2023/09/24 01:30:39;;;;;;;1.70;1.00;;;;;;;;;;5010913;28;20447;-55
2023/09/24 01:33:07;;;;;;;1.80;1.00;;;;;;;;;;5010690;28;20524;-55
2023/09/24 01:35:36;;;;;;;3.80;1.37;;;;;;;;;;5006174;28;20530;-55
2023/09/24 01:38:05;;;;;;;1.80;1.07;;;;;;;;;;5009075;28;20963;-55
2023/09/24 01:40:35;;;;;;;3.50;1.23;;;;;;;;;;5010666;28;20509;-55
2023/09/24 01:43:04;;;;;;;4.00;1.00;;;;;;;;;;5010541;28;20485;-55
2023/09/24 01:45:33;;;;;;;2.37;1.30;;;;;;;;;;5011181;28;20562;-55
2023/09/24 01:48:02;;;;;;;2.00;1.40;;;;;;;;;;5010724;28;20451;-55
2023/09/24 01:50:30;;;;;;;2.20;1.30;;;;;;;;;;5010076;28;20529;-55
2023/09/24 01:52:58;;;;;;;3.03;1.50;;;;;;;;;;5010506;28;20872;-55
2023/09/24 01:55:25;;;;;;;2.43;1.13;;;;;;;;;;5010752;28;20849;-55
2023/09/24 01:57:55;;;;;;;6.77;1.77;;;;;;;;;;5010621;28;20439;-55
2023/09/24 02:00:23;;;;;;;3.40;1.13;;;;;;;;;;5010282;28;20443;-55
2023/09/24 02:02:51;;;;;;;2.80;1.13;;;;;;;;;;5010514;28;20447;-55
2023/09/24 02:05:19;;;;;;;4.43;1.67;;;;;;;;;;5010223;28;20475;-56
2023/09/24 02:07:49;;;;;;;2.40;1.43;;;;;;;;;;5010800;28;20509;-55
2023/09/24 02:10:18;;;;;;;2.67;1.40;;;;;;;;;;5010323;28;20505;-55
2023/09/24 02:12:46;;;;;;;3.13;1.53;;;;;;;;;;5010561;28;20447;-55
2023/09/24 02:15:18;;;;;;;2.63;1.10;;;;;;;;;;5010453;28;20463;-55
2023/09/24 02:17:47;;;;;;;1.77;1.23;;;;;;;;;;5010471;28;20447;-55
2023/09/24 02:20:22;;;;;;;2.60;1.30;;;;;;;;;;5010024;28;20450;-55
2023/09/24 02:22:50;;;;;;;2.90;1.03;;;;;;;;;;5010275;28;21028;-55
2023/09/24 02:25:17;;;;;;;4.17;1.40;;;;;;;;;;5010523;28;20578;-55
2023/09/24 02:27:45;;;;;;;1.60;1.00;;;;;;;;;;5010149;28;20443;-55
2023/09/24 02:30:13;;;;;;;3.20;0.90;;;;;;;;;;5009512;28;20482;-55
2023/09/24 02:32:42;;;;;;;2.33;1.40;;;;;;;;;;5010230;28;20465;-55
2023/09/24 02:35:11;;;;;;;2.57;1.30;;;;;;;;;;5010926;28;20668;-55
2023/09/24 02:37:38;;;;;;;3.43;1.17;;;;;;;;;;5004309;28;20454;-55
2023/09/24 02:40:08;;;;;;;2.33;1.13;;;;;;;;;;5009726;28;20530;-55
2023/09/24 02:42:37;;;;;;;2.00;1.30;;;;;;;;;;5010203;28;20443;-55
2023/09/24 02:45:07;;;;;;;6.73;1.23;;;;;;;;;;5009766;28;20526;-55
2023/09/24 02:47:34;;;;;;;3.57;1.43;;;;;;;;;;5010298;28;20447;-55
2023/09/24 02:50:04;;;;;;;2.70;1.20;;;;;;;;;;5009937;28;20447;-55
2023/09/24 02:52:33;;;;;;;4.83;1.87;;;;;;;;;;5010210;28;20451;-55
2023/09/24 02:55:00;;;;;;;1.90;1.00;;;;;;;;;;5010208;28;20467;-55
2023/09/24 02:57:27;;;;;;;2.10;1.00;;;;;;;;;;5010206;28;20505;-55
2023/09/24 02:59:55;;;;;;;1.87;0.90;;;;;;;;;;5010039;28;20447;-55
2023/09/24 03:02:22;;;;;;;1.80;1.07;;;;;;;;;;5012728;28;20497;-55
2023/09/24 03:04:49;;;;;;;3.40;1.00;;;;;;;;;;5013883;28;20491;-55
2023/09/24 03:07:19;;;;;;;1.70;0.90;;;;;;;;;;5013802;28;20447;-55
2023/09/24 03:09:47;;;;;;;3.13;0.90;;;;;;;;;;5013645;28;20447;-55
2023/09/24 03:12:14;;;;;;;2.07;1.03;;;;;;;;;;5013542;28;21308;-55
2023/09/24 03:14:41;;;;;;;3.40;1.30;;;;;;;;;;5013867;28;20455;-55
2023/09/24 03:17:09;;;;;;;3.03;1.30;;;;;;;;;;5013768;28;20450;-55
2023/09/24 03:19:36;;;;;;;2.27;1.40;;;;;;;;;;5013547;28;20454;-55
2023/09/24 03:22:03;;;;;;;1.93;1.30;;;;;;;;;;5013568;28;20516;-54
2023/09/24 03:24:32;;;;;;;2.77;1.10;;;;;;;;;;5013098;28;21021;-55
2023/09/24 03:26:59;;;;;;;2.80;1.20;;;;;;;;;;5013515;28;20505;-55
2023/09/24 03:29:26;;;;;;;1.97;1.30;;;;;;;;;;5013178;28;20451;-55
2023/09/24 03:31:54;;;;;;;2.00;1.10;;;;;;;;;;5013328;28;20821;-55
2023/09/24 03:34:21;;;;;;;2.07;0.97;;;;;;;;;;5013231;28;20443;-54
2023/09/24 03:36:48;;;;;;;1.70;1.10;;;;;;;;;;5013575;28;20780;-53
2023/09/24 03:39:16;;;;;;;2.37;1.20;;;;;;;;;;5011776;28;20447;-55
2023/09/24 03:41:44;;;;;;;2.00;1.20;;;;;;;;;;5013326;28;20477;-54
2023/09/24 03:44:12;;;;;;;2.00;1.00;;;;;;;;;;5013036;28;20491;-55
2023/09/24 03:46:39;;;;;;;1.80;1.00;;;;;;;;;;5013047;28;20546;-54
2023/09/24 03:49:06;;;;;;;2.07;1.20;;;;;;;;;;5012682;28;20454;-55
2023/09/24 03:51:34;;;;;;;2.97;1.30;;;;;;;;;;5012827;28;20447;-55
2023/09/24 03:54:03;;;;;;;2.40;1.17;;;;;;;;;;5012771;28;20936;-54
2023/09/24 03:56:30;;;;;;;2.83;1.60;;;;;;;;;;5012941;28;20475;-54
2023/09/24 03:58:59;;;;;;;2.70;1.87;;;;;;;;;;5012773;28;20501;-55
2023/09/24 04:01:26;;;;;;;1.83;1.43;;;;;;;;;;5012496;28;20501;-54
2023/09/24 04:03:54;;;;;;;1.63;1.00;;;;;;;;;;5012479;28;20740;-54
2023/09/24 04:06:21;;;;;;;3.03;1.73;;;;;;;;;;5012501;28;20658;-54
2023/09/24 04:08:48;;;;;;;2.10;1.20;;;;;;;;;;5012548;28;20447;-55
2023/09/24 04:11:16;;;;;;;2.63;1.30;;;;;;;;;;5012235;28;20947;-54
2023/09/24 04:13:43;;;;;;;2.97;1.60;;;;;;;;;;5012183;28;20597;-54
2023/09/24 04:16:13;;;;;;;2.07;1.10;;;;;;;;;;5012127;28;21269;-54
2023/09/24 04:18:41;;;;;;;2.47;1.40;;;;;;;;;;5012180;28;20447;-55
2023/09/24 04:21:15;;;;;;;1.70;1.00;;;;;;;;;;5012197;28;20458;-54
2023/09/24 04:23:42;;;;;;;2.60;1.30;;;;;;;;;;5012282;28;20810;-54
2023/09/24 04:26:10;;;;;;;2.63;1.83;;;;;;;;;;5011820;28;20491;-54
2023/09/24 04:28:37;;;;;;;1.90;0.93;;;;;;;;;;5012123;28;20981;-54
2023/09/24 04:31:05;;;;;;;2.20;1.20;;;;;;;;;;5011571;28;20513;-54
2023/09/24 04:33:34;;;;;;;3.93;3.63;;;;;;;;;;5012062;28;20459;-54
2023/09/24 04:36:01;;;;;;;3.07;1.00;;;;;;;;;;5038517;23;20487;-87
2023/09/24 04:38:28;;;;;;;2.90;1.33;;;;;;;;;;5012842;28;20438;-87
2023/09/24 04:40:56;;;;;;;1.90;0.97;;;;;;;;;;5012666;28;20562;-87
2023/09/24 04:43:23;;;;;;;4.33;1.57;;;;;;;;;;5005479;28;20470;-87
2023/09/24 04:45:50;;;;;;;4.00;1.37;;;;;;;;;;5012580;28;20533;-87
2023/09/24 04:48:18;;;;;;;3.90;1.20;;;;;;;;;;5039627;22;20555;-55
2023/09/24 04:50:46;;;;;;;2.03;1.10;;;;;;;;;;5031637;28;20500;-54
2023/09/24 04:53:14;;;;;;;1.80;1.10;;;;;;;;;;5031611;28;21015;-56
2023/09/24 04:55:41;;;;;;;2.37;1.17;;;;;;;;;;5031983;28;20870;-54
2023/09/24 04:58:08;;;;;;;2.50;1.33;;;;;;;;;;5031075;28;20815;-54
2023/09/24 05:00:36;;;;;;;2.60;1.30;;;;;;;;;;5031566;28;20485;-54
2023/09/24 05:03:03;;;;;;;2.03;1.03;;;;;;;;;;5031579;28;20442;-55
2023/09/24 05:05:30;;;;;;;1.60;0.90;;;;;;;;;;5031771;28;20516;-55
2023/09/24 05:07:58;;;;;;;1.90;1.20;;;;;;;;;;5031659;28;20446;-54
2023/09/24 05:10:25;;;;;;;2.70;1.30;;;;;;;;;;5031310;28;20513;-54
2023/09/24 05:12:53;;;;;;;2.90;1.63;;;;;;;;;;5031298;28;20946;-54
2023/09/24 05:15:20;;;;;;;2.43;1.37;;;;;;;;;;5031143;28;20455;-55
2023/09/24 05:17:47;;;;;;;2.57;1.50;;;;;;;;;;5030762;28;20442;-54
2023/09/24 05:20:15;;;;;;;2.20;1.20;;;;;;;;;;5016366;28;20447;-54
2023/09/24 05:22:43;;;;;;;2.43;1.20;;;;;;;;;;5023881;28;20489;-54
2023/09/24 05:25:11;;;;;;;2.57;1.23;;;;;;;;;;5024368;28;20567;-56
2023/09/24 05:27:39;;;;;;;2.00;1.23;;;;;;;;;;5008967;28;21100;-56
2023/09/24 05:30:07;;;;;;;2.80;1.30;;;;;;;;;;5008299;28;20471;-55
2023/09/24 05:32:34;;;;;;;2.23;1.13;;;;;;;;;;5009074;28;20781;-54
2023/09/24 05:35:02;;;;;;;2.97;1.33;;;;;;;;;;5008932;28;20486;-56
2023/09/24 05:37:29;;;;;;;3.40;1.47;;;;;;;;;;5008652;28;20749;-55
2023/09/24 05:39:57;;;;;;;2.50;1.07;;;;;;;;;;5008450;28;20483;-55
2023/09/24 05:42:26;;;;;;;3.37;2.40;;;;;;;;;;5021247;28;20902;-56
2023/09/24 05:44:53;;;;;;;3.00;1.60;;;;;;;;;;5027087;28;20513;-55
2023/09/24 05:47:20;;;;;;;6.40;2.50;;;;;;;;;;5027085;28;20820;-54
2023/09/24 05:49:48;;;;;;;2.80;1.80;;;;;;;;;;5026619;28;20543;-54
2023/09/24 05:52:15;;;;;;;3.03;2.73;;;;;;;;;;5008222;28;21033;-56
2023/09/24 05:54:42;;;;;;;8.93;2.50;;;;;;;;;;5008500;28;20471;-56
2023/09/24 05:57:10;;;;;;;2.20;1.40;;;;;;;;;;5008204;28;20470;-56
2023/09/24 05:59:39;;;;;;;2.00;1.30;;;;;;;;;;5008651;28;20538;-56
2023/09/24 06:02:06;;;;;;;3.20;1.63;;;;;;;;;;5008928;28;20512;-56
2023/09/24 06:04:33;;;;;;;3.33;1.33;;;;;;;;;;5008383;28;20482;-56
2023/09/24 06:07:00;;;;;;;4.63;1.97;;;;;;;;;;5008584;28;21267;-56
2023/09/24 06:09:30;;;;;;;2.77;2.33;;;;;;;;;;5008255;28;20505;-56
2023/09/24 06:11:57;;;;;;;2.10;1.60;;;;;;;;;;5008126;28;20513;-56
2023/09/24 06:14:24;;;;;;;5.10;1.90;;;;;;;;;;5021061;28;20524;-54
2023/09/24 06:16:53;;;;;;;3.30;1.90;;;;;;;;;;5027811;28;20469;-54
2023/09/24 06:19:20;;;;;;;2.50;1.40;;;;;;;;;;5027588;28;20857;-54
2023/09/24 06:21:51;;;;;;;4.03;1.50;;;;;;;;;;5027902;28;21036;-57
2023/09/24 06:24:19;;;;;;;3.00;1.90;;;;;;;;;;5027715;28;20970;-55
2023/09/24 06:26:47;;;;;;;4.20;2.43;;;;;;;;;;5021212;28;20550;-57
2023/09/24 06:29:14;;;;;;;2.40;1.80;;;;;;;;;;5026812;28;20498;-55
2023/09/24 06:31:42;;;;;;;2.60;1.87;;;;;;;;;;5026808;28;20468;-54
2023/09/24 06:34:10;;;;;;;3.70;1.70;;;;;;;;;;5026761;28;20500;-56
2023/09/24 06:36:38;;;;;;;3.20;1.90;;;;;;;;;;5029694;28;20915;-54
2023/09/24 06:39:10;;;;;;;3.03;2.20;;;;;;;;;;5023305;28;20479;-55
2023/09/24 06:41:37;;;;;;;3.63;2.20;;;;;;;;;;5022124;28;20952;-55
2023/09/24 06:44:05;;;;;;;2.70;1.90;;;;;;;;;;5021033;28;20439;-57
2023/09/24 06:46:32;;;;;;;2.63;1.87;;;;;;;;;;5021285;28;20588;-55
2023/09/24 06:49:00;;;;;;;3.60;2.40;;;;;;;;;;5021680;28;20881;-56
2023/09/24 06:51:29;;;;;;;3.37;2.70;;;;;;;;;;5019014;28;20439;-54
2023/09/24 06:53:56;;;;;;;3.60;2.30;;;;;;;;;;5020493;28;20957;-54
2023/09/24 06:56:23;;;;;;;2.47;2.00;;;;;;;;;;5021174;28;21011;-55
2023/09/24 06:58:50;;;;;;;4.10;2.60;;;;;;;;;;5019603;28;20494;-56
2023/09/24 07:01:18;;;;;;;3.30;2.50;;;;;;;;;;5017399;28;21093;-56
2023/09/24 07:03:47;;;;;;;3.20;2.70;;;;;;;;;;5026796;28;20979;-54
2023/09/24 07:06:15;;;;;;;4.27;2.57;;;;;;;;;;5024989;28;20849;-54
2023/09/24 07:08:43;;;;;;;2.77;2.37;;;;;;;;;;5027806;28;20450;-54
2023/09/24 07:11:24;;;;;;;3.60;2.67;;;;;;;;;;5025875;28;20443;-54
2023/09/24 07:13:51;;;;;;;2.73;2.20;;;;;;;;;;5022584;28;21218;-59
2023/09/24 07:16:22;;;;;;;3.23;2.50;;;;;;;;;;5027015;28;20531;-57
2023/09/24 07:18:51;;;;;;;4.40;3.27;;;;;;;;;;5028448;28;20469;-54
2023/09/24 07:21:18;;;;;;;2.20;1.63;;;;;;;;;;5027426;28;21202;-55
2023/09/24 07:23:49;;;;;;;2.67;2.00;;;;;;;;;;5028662;28;20520;-55
2023/09/24 07:26:16;;;;;;;4.10;2.10;;;;;;;;;;5028512;28;20489;-56
2023/09/24 07:28:43;;;;;;;2.50;2.07;;;;;;;;;;5023435;28;20497;-56
2023/09/24 07:31:14;;;;;;;3.50;2.50;;;;;;;;;;5012054;28;20530;-55
2023/09/24 07:33:43;;;;;;;4.80;2.60;;;;;;;;;;5012446;28;20439;-57
2023/09/24 07:36:10;;;;;;;3.80;2.17;;;;;;;;;;5017897;28;20870;-56
2023/09/24 07:38:38;;;;;;;3.03;2.30;;;;;;;;;;5014470;28;20438;-57
2023/09/24 07:41:07;;;;;;;3.13;2.17;;;;;;;;;;5018244;28;20474;-57
2023/09/24 07:43:34;;;;;;;4.23;2.57;;;;;;;;;;5018936;28;20518;-56
2023/09/24 07:46:02;;;;;;;3.20;1.83;;;;;;;;;;5016947;28;21069;-56
2023/09/24 07:48:29;;;;;;;4.10;2.63;;;;;;;;;;5020744;28;21000;-55
2023/09/24 07:50:56;;;;;;;3.90;2.00;;;;;;;;;;5015109;28;20869;-55
2023/09/24 07:53:24;;;;;;;2.70;2.00;;;;;;;;;;5012294;28;20865;-54
2023/09/24 07:55:55;;;;;;;4.30;2.70;;;;;;;;;;5012422;28;20473;-56
2023/09/24 07:58:24;;;;;;;2.50;1.80;;;;;;;;;;5013761;28;20530;-56
2023/09/24 08:00:52;;;;;;;4.80;2.60;;;;;;;;;;5012148;28;20927;-57
2023/09/24 08:03:20;;;;;;;4.17;2.50;;;;;;;;;;5011243;28;20481;-55
2023/09/24 08:05:47;;;;;;;3.90;2.97;;;;;;;;;;5012696;28;20487;-54
2023/09/24 08:08:14;;;;;;;3.40;2.23;;;;;;;;;;5012397;28;20502;-56
2023/09/24 08:10:42;;;;;;;2.80;2.53;;;;;;;;;;5012761;28;20507;-54
2023/09/24 08:13:09;;;;;;;2.90;2.00;;;;;;;;;;5012452;28;20443;-55
2023/09/24 08:15:38;;;;;;;2.07;1.80;;;;;;;;;;5012374;28;20844;-56
2023/09/24 08:18:08;;;;;;;2.60;2.00;;;;;;;;;;5012569;28;20443;-56
2023/09/24 08:20:37;;;;;;;2.70;2.03;;;;;;;;;;5012459;28;20451;-55
2023/09/24 08:23:04;;;;;;;2.40;2.07;;;;;;;;;;5012218;28;20446;-56
2023/09/24 08:25:32;;;;;;;2.87;1.97;;;;;;;;;;5012138;28;20491;-56
2023/09/24 08:27:59;;;;;;;2.70;1.90;;;;;;;;;;5012318;28;20443;-56
2023/09/24 08:30:31;;;;;;;4.87;3.57;;;;;;;;;;5012069;28;20451;-55
2023/09/24 08:33:01;;;;;;;3.50;2.33;;;;;;;;;;5012233;28;20990;-54
2023/09/24 08:35:28;;;;;;;3.20;2.20;;;;;;;;;;5017932;28;20458;-54
2023/09/24 08:37:55;;;;;;;2.33;1.77;;;;;;;;;;5031239;28;20505;-58
2023/09/24 08:40:23;;;;;;;2.53;1.67;;;;;;;;;;5020338;28;20452;-54
2023/09/24 08:42:52;;;;;;;1.90;1.60;;;;;;;;;;5018759;28;20536;-55
2023/09/24 08:45:19;;;;;;;2.10;1.70;;;;;;;;;;5026330;28;20986;-56
2023/09/24 08:47:47;;;;;;;2.10;1.47;;;;;;;;;;5012182;28;20538;-56
2023/09/24 08:50:16;;;;;;;1.93;1.13;;;;;;;;;;5015507;28;20881;-55
2023/09/24 08:52:45;;;;;;;2.20;1.43;;;;;;;;;;5031955;28;20504;-54
2023/09/24 08:55:13;;;;;;;2.53;1.37;;;;;;;;;;5031340;28;21195;-54
2023/09/24 08:57:40;;;;;;;2.50;1.77;;;;;;;;;;5031479;28;20946;-54
2023/09/24 09:00:11;;;;;;;2.43;1.40;;;;;;;;;;5030321;28;20474;-54
2023/09/24 09:02:39;;;;;;;3.00;1.53;;;;;;;;;;5031919;28;21033;-55
2023/09/24 09:05:08;;;;;;;2.97;1.40;;;;;;;;;;5031602;28;20466;-54
2023/09/24 09:07:36;;;;;;;3.03;1.90;;;;;;;;;;5030793;28;20446;-54
2023/09/24 09:10:04;;;;;;;3.07;1.50;;;;;;;;;;5029691;28;21005;-55
2023/09/24 09:12:32;;;;;;;2.30;1.23;;;;;;;;;;5024485;28;20530;-54
2023/09/24 09:14:59;;;;;;;3.10;1.63;;;;;;;;;;5010469;28;20439;-57
2023/09/24 09:17:40;;;;;;;3.23;1.60;;;;;;;;;;5010646;28;20920;-54
2023/09/24 09:20:08;;;;;;;2.60;1.50;;;;;;;;;;5009939;28;21038;-56
2023/09/24 09:22:38;;;;;;;1.90;1.33;;;;;;;;;;5010205;28;20448;-54
2023/09/24 09:25:06;;;;;;;2.90;1.70;;;;;;;;;;5009970;28;20466;-56
2023/09/24 09:27:34;;;;;;;2.10;1.60;;;;;;;;;;5011123;28;20471;-56
2023/09/24 09:30:14;;;;;;;2.43;1.43;;;;;;;;;;5010791;28;20443;-54
2023/09/24 09:32:42;;;;;;;2.90;1.70;;;;;;;;;;5011075;28;20447;-55
2023/09/24 09:35:09;;;;;;;2.70;1.70;;;;;;;;;;5011503;28;20463;-54
2023/09/24 09:37:39;;;;;;;2.83;1.93;;;;;;;;;;5011444;28;20443;-55
2023/09/24 09:40:06;;;;;;;2.33;1.60;;;;;;;;;;5010892;28;20864;-54
2023/09/24 09:42:34;;;;;;;2.87;1.67;;;;;;;;;;5011264;28;21006;-54
2023/09/24 09:45:03;;;;;;;3.20;1.30;;;;;;;;;;5010901;28;20554;-54
2023/09/24 09:47:34;;;;;;;2.77;1.80;;;;;;;;;;5010950;28;20913;-54
2023/09/24 09:50:01;;;;;;;2.20;1.47;;;;;;;;;;5010885;28;20447;-56
2023/09/24 09:52:36;;;;;;;2.23;1.40;;;;;;;;;;5010931;28;20447;-54
2023/09/24 09:55:06;;;;;;;2.43;1.47;;;;;;;;;;5010612;28;20474;-57
2023/09/24 09:57:34;;;;;;;2.63;1.63;;;;;;;;;;5011129;28;20505;-56
2023/09/24 10:00:05;;;;;;;3.07;1.37;;;;;;;;;;5009563;28;20967;-56
2023/09/24 10:02:33;;;;;;;2.10;1.40;;;;;;;;;;5009834;28;20814;-55
2023/09/24 10:05:01;;;;;;;2.67;1.30;;;;;;;;;;5009423;28;20459;-54
2023/09/24 10:07:28;;;;;;;2.63;1.40;;;;;;;;;;5009965;28;20486;-56
2023/09/24 10:09:55;;;;;;;2.60;1.70;;;;;;;;;;5009458;28;20521;-55
2023/09/24 10:12:35;;;;;;;2.27;1.63;;;;;;;;;;5009532;28;20513;-55
2023/09/24 10:15:17;;;;;;;2.90;1.70;;;;;;;;;;5010668;28;20565;-56
2023/09/24 10:17:45;;;;;;;2.80;1.80;;;;;;;;;;5010775;28;20509;-55
2023/09/24 10:20:13;;;;;;;2.30;1.23;;;;;;;;;;5010113;28;20497;-55
2023/09/24 10:22:42;;;;;;;5.27;3.97;;;;;;;;;;5010428;28;20538;-56
2023/09/24 10:25:24;;;;;;;4.33;2.70;;;;;;;;;;5010354;28;20471;-54
2023/09/24 10:28:03;;;;;;;3.00;2.50;;;;;;;;;;5010471;28;20435;-56
2023/09/24 10:30:51;;;;;;;13.43;11.67;;;;;;;;;;5023956;28;20434;-56
2023/09/24 10:33:40;;;;;;;3.27;2.30;;;;;;;;;;5010350;28;20454;-54
2023/09/24 10:38:50;;;;;;;2.40;1.60;;;;;;;;;;5028806;28;20474;-57
2023/09/24 10:41:17;;;;;;;2.50;1.30;;;;;;;;;;5028969;28;20446;-56
2023/09/24 10:44:06;;;;;;;2.87;1.50;;;;;;;;;;5030194;28;20442;-56
2023/09/24 10:46:33;;;;;;;2.20;1.40;;;;;;;;;;5029817;28;20490;-57
2023/09/24 10:49:01;;;;;;;4.77;3.57;;;;;;;;;;5029699;28;20450;-57
2023/09/24 10:51:28;;;;;;;6.80;2.07;;;;;;;;;;5029912;28;20520;-56
2023/09/24 10:54:10;;;;;;;2.30;1.50;;;;;;;;;;5029901;28;20446;-56
2023/09/24 10:56:38;;;;;;;3.07;1.60;;;;;;;;;;5005169;28;20547;-57
2023/09/24 10:59:07;;;;;;;4.50;1.63;;;;;;;;;;4996048;28;20444;-56
2023/09/24 11:01:34;;;;;;;3.83;2.10;;;;;;;;;;4994543;28;20448;-57
2023/09/24 11:04:01;;;;;;;3.00;1.87;;;;;;;;;;4996858;28;20448;-55
2023/09/24 11:06:32;;;;;;;2.70;1.47;;;;;;;;;;5029548;28;20515;-58
2023/09/24 11:09:14;;;;;;;2.70;1.63;;;;;;;;;;5029889;28;20504;-57
2023/09/24 11:11:41;;;;;;;2.97;2.00;;;;;;;;;;5029933;28;20442;-55
2023/09/24 11:14:16;;;;;;;8.30;7.37;;;;;;;;;;5030021;28;20442;-55
2023/09/24 11:16:43;;;;;;;4.37;2.63;;;;;;;;;;5029515;28;20460;-56
2023/09/24 11:19:11;;;;;;;2.37;1.50;;;;;;;;;;5028052;28;20434;-57
2023/09/24 11:21:38;;;;;;;3.23;2.47;;;;;;;;;;5028725;28;20841;-56
2023/09/24 11:24:21;;;;;;;2.80;1.70;;;;;;;;;;5021440;28;20443;-57
2023/09/24 11:26:49;;;;;;;2.90;1.97;;;;;;;;;;5016063;28;20490;-57
2023/09/24 11:29:18;;;;;;;3.50;2.60;;;;;;;;;;5020225;28;20873;-55
2023/09/24 11:31:46;;;;;;;2.83;2.30;;;;;;;;;;5025049;28;20434;-58
2023/09/24 11:34:22;;;;;;;2.33;1.70;;;;;;;;;;5031700;28;20810;-56
2023/09/24 11:36:56;;;;;;;3.13;2.63;;;;;;;;;;5032813;28;20469;-58
2023/09/24 11:39:23;;;;;;;3.97;2.20;;;;;;;;;;5032669;28;20533;-57
2023/09/24 11:41:51;;;;;;;4.23;2.10;;;;;;;;;;5031439;28;20447;-57
2023/09/24 11:44:20;;;;;;;5.03;2.43;;;;;;;;;;5032205;28;20512;-55
2023/09/24 11:46:48;;;;;;;3.47;2.33;;;;;;;;;;5031842;28;20573;-58
2023/09/24 11:49:15;;;;;;;3.50;2.67;;;;;;;;;;5032110;28;20830;-57
2023/09/24 11:51:42;;;;;;;3.23;2.03;;;;;;;;;;5032703;28;20442;-58
2023/09/24 11:54:13;;;;;;;3.67;2.60;;;;;;;;;;5032238;28;20442;-57
2023/09/24 11:56:40;;;;;;;5.87;3.10;;;;;;;;;;5031704;28;20481;-57
2023/09/24 11:59:07;;;;;;;4.17;2.77;;;;;;;;;;5031522;28;20446;-58
2023/09/24 12:01:36;;;;;;;3.80;2.43;;;;;;;;;;5031676;28;20451;-57
2023/09/24 12:04:03;;;;;;;3.27;2.50;;;;;;;;;;5032305;28;20874;-57
2023/09/24 12:06:31;;;;;;;2.83;2.33;;;;;;;;;;5032427;28;20482;-57
2023/09/24 12:08:58;;;;;;;2.67;2.30;;;;;;;;;;5032243;28;20486;-57
2023/09/24 12:11:26;;;;;;;3.00;2.20;;;;;;;;;;5032717;28;20438;-55
2023/09/24 12:13:56;;;;;;;2.80;1.70;;;;;;;;;;5032589;28;20446;-57
2023/09/24 12:16:23;;;;;;;3.53;1.90;;;;;;;;;;5032733;28;20458;-58
2023/09/24 12:18:52;;;;;;;3.60;2.13;;;;;;;;;;5032622;28;20484;-56
2023/09/24 12:21:19;;;;;;;2.90;2.00;;;;;;;;;;5011825;28;20443;-58
2023/09/24 12:23:47;;;;;;;6.40;2.10;;;;;;;;;;5012771;28;20475;-56
2023/09/24 12:26:14;;;;;;;2.80;1.87;;;;;;;;;;5012634;28;20455;-57
2023/09/24 12:28:41;;;;;;;2.90;2.33;;;;;;;;;;5012648;28;20881;-55
2023/09/24 12:31:09;;;;;;;2.60;1.80;;;;;;;;;;5012165;28;20994;-55
2023/09/24 12:33:36;;;;;;;3.10;1.83;;;;;;;;;;5012199;28;20451;-56
2023/09/24 12:36:05;;;;;;;3.90;1.90;;;;;;;;;;5012145;28;20517;-55
2023/09/24 12:38:33;;;;;;;3.80;2.33;;;;;;;;;;5012468;28;20889;-55
2023/09/24 12:41:00;;;;;;;3.03;1.70;;;;;;;;;;5014953;28;20435;-54
2023/09/24 12:43:27;;;;;;;2.63;1.97;;;;;;;;;;5019953;28;20934;-55
2023/09/24 12:45:55;;;;;;;3.00;2.07;;;;;;;;;;5024593;28;20497;-54
2023/09/24 12:48:24;;;;;;;3.33;2.00;;;;;;;;;;5031636;28;20556;-54
2023/09/24 12:50:52;;;;;;;2.20;1.80;;;;;;;;;;5029611;28;20481;-56
2023/09/24 12:53:20;;;;;;;3.13;2.60;;;;;;;;;;5026683;28;20505;-55
2023/09/24 12:55:47;;;;;;;3.83;2.53;;;;;;;;;;5028052;28;20466;-56
2023/09/24 12:58:15;;;;;;;4.70;2.60;;;;;;;;;;5025969;28;20440;-57
2023/09/24 13:00:42;;;;;;;2.80;1.83;;;;;;;;;;5029612;28;20455;-56
2023/09/24 13:03:10;;;;;;;2.27;1.60;;;;;;;;;;5030737;28;20446;-57
2023/09/24 13:05:37;;;;;;;3.23;1.87;;;;;;;;;;5030367;28;20570;-56
2023/09/24 13:08:04;;;;;;;4.57;2.10;;;;;;;;;;5030255;28;20516;-55
2023/09/24 13:10:33;;;;;;;2.40;1.87;;;;;;;;;;5029971;28;20524;-55
2023/09/24 13:13:00;;;;;;;3.40;2.10;;;;;;;;;;5030384;28;20446;-54
2023/09/24 13:15:28;;;;;;;2.83;2.50;;;;;;;;;;5030460;28;20461;-54
2023/09/24 13:17:55;;;;;;;2.63;2.10;;;;;;;;;;5031096;28;20503;-55
2023/09/24 13:20:22;;;;;;;3.10;2.33;;;;;;;;;;5030391;28;20934;-55
2023/09/24 13:22:50;;;;;;;2.87;2.17;;;;;;;;;;5030440;28;20938;-55
2023/09/24 13:25:17;;;;;;;3.17;2.30;;;;;;;;;;5030095;28;20473;-55
2023/09/24 13:27:46;;;;;;;3.43;2.60;;;;;;;;;;5030123;28;20587;-57
2023/09/24 13:30:13;;;;;;;3.80;2.43;;;;;;;;;;5029632;28;20496;-55
2023/09/24 13:32:40;;;;;;;4.00;2.43;;;;;;;;;;5030019;28;20446;-55
2023/09/24 13:35:09;;;;;;;3.40;2.30;;;;;;;;;;5029882;28;20539;-55
2023/09/24 13:37:37;;;;;;;2.87;2.40;;;;;;;;;;5030905;28;20485;-55
2023/09/24 13:40:05;;;;;;;3.07;2.20;;;;;;;;;;5030740;28;20454;-56
2023/09/24 13:42:33;;;;;;;4.00;2.43;;;;;;;;;;5030638;28;20480;-55
2023/09/24 13:45:07;;;;;;;3.53;2.37;;;;;;;;;;5030137;28;20457;-54
2023/09/24 13:47:34;;;;;;;3.43;2.33;;;;;;;;;;5020918;28;20518;-55
2023/09/24 13:50:01;;;;;;;3.40;2.40;;;;;;;;;;5000630;28;20490;-56
2023/09/24 13:52:29;;;;;;;2.53;2.03;;;;;;;;;;5016173;28;20450;-55
2023/09/24 13:54:56;;;;;;;3.67;2.10;;;;;;;;;;5013579;28;20871;-55
2023/09/24 13:57:23;;;;;;;3.53;2.20;;;;;;;;;;5014757;28;21016;-55
2023/09/24 13:59:50;;;;;;;2.93;2.27;;;;;;;;;;5017561;28;20439;-54
2023/09/24 14:02:19;;;;;;;2.87;2.27;;;;;;;;;;5019386;28;20438;-55
2023/09/24 14:04:46;;;;;;;2.90;1.87;;;;;;;;;;5019834;28;20985;-56
2023/09/24 14:07:14;;;;;;;4.83;2.93;;;;;;;;;;5029979;28;20994;-54
2023/09/24 14:12:26;;;;;;;4.03;2.40;;;;;;;;;;5012598;28;20501;-54
2023/09/24 14:14:54;;;;;;;4.13;2.23;;;;;;;;;;5013042;28;20463;-57
2023/09/24 14:17:22;;;;;;;3.80;2.37;;;;;;;;;;5012954;28;20435;-55
2023/09/24 14:19:50;;;;;;;3.10;2.50;;;;;;;;;;5019213;28;20435;-56
2023/09/24 14:22:17;;;;;;;3.70;2.30;;;;;;;;;;5030036;28;20457;-56
2023/09/24 14:24:44;;;;;;;3.40;3.10;;;;;;;;;;5030487;28;20477;-57
2023/09/24 14:27:12;;;;;;;2.77;2.50;;;;;;;;;;5030438;28;20559;-57
2023/09/24 14:29:39;;;;;;;3.00;2.43;;;;;;;;;;5030123;28;20598;-56
2023/09/24 14:32:05;;;;;;;3.30;2.40;;;;;;;;;;5030294;28;20524;-57
2023/09/24 14:34:34;;;;;;;3.77;2.50;;;;;;;;;;5025032;28;20446;-59
2023/09/24 14:37:01;;;;;;;3.33;2.43;;;;;;;;;;5030278;28;20509;-55
2023/09/24 14:39:29;;;;;;;4.30;3.00;;;;;;;;;;5030310;28;20504;-57
2023/09/24 14:41:57;;;;;;;3.53;3.23;;;;;;;;;;5030079;28;20452;-58
2023/09/24 14:44:27;;;;;;;3.03;2.40;;;;;;;;;;4995407;28;20491;-56
2023/09/24 14:46:54;;;;;;;3.57;2.67;;;;;;;;;;5001150;28;20478;-55
2023/09/24 14:49:21;;;;;;;3.90;2.40;;;;;;;;;;5004155;28;20486;-55
2023/09/24 14:51:50;;;;;;;4.13;2.80;;;;;;;;;;5004774;28;20903;-55
2023/09/24 14:54:17;;;;;;;5.23;2.30;;;;;;;;;;5003642;28;20537;-55
2023/09/24 14:56:44;;;;;;;3.60;2.10;;;;;;;;;;5002922;28;20907;-58